Deer Creek, IL (61733)

12:34 PM CDT on March 30, 2015 (GMT -0500)
Oak Valley | | Change Station
CLOSE
Current Station
Personal Weather Station
Location: Goodfield, IL
Elevation: 764 ft
Nearby Weather Stations

Elev 764 ft 40.61 °N, 89.27 °W | Updated 20 seconds ago

Clear
Clear
62.1 °F
Feels Like 62.1 °F
N
5.0
Wind Variable Wind from SW
Gusts 16.0 mph

Today
High -- | Low -- °F
--% Chance of Precip.
Yesterday
High -- | Low -- °F
Precip. -- in
6:44 AM 7:19 PM
Waxing Gibbous, 81% visible
Pressure 30.09 in
Visibility 10.0 miles
Clouds Clear
Dew Point 33 °F
Humidity 34%
Rainfall 0.00 in
Snow Depth Not available.
UV 8 out of 12
Pollen 5.00 out of 12
Air Quality Not available.
Flu Activity Not available.
METAR KPIA 301654Z 26011G20KT 10SM CLR 18/M02 A3009 RMK AO2 SLP190 T01781022

More Conditions Fewer Conditions

Pressure 30.09 in
Visibility 10.0 miles
Clouds Clear
Dew Point 33 °F
Humidity 34%
Rainfall 0.00 in
Snow Depth Not available.
UV 8 out of 12
Pollen 5.00 out of 12
Air Quality Not available.
Flu Activity Not available.
METAR KPIA 301654Z 26011G20KT 10SM CLR 18/M02 A3009 RMK AO2 SLP190 T01781022

More Conditions Fewer Conditions

10-Day Weather Forecast

Almanac

Astronomy

Mar. 30, 2015 Rise Set
Actual Time
Civil Twilight
Nautical Twilight
Astronomical Twilight
Moon
Length of Visible Light
Length of Day
Tomorrow will be .
, % of the Moon is Illuminated

Today's Extremes

State Highs State Lows

Community

WunderPhotos

Upload Photos

1,809,545 photos uploaded!

WunderBlogs® & News

Nearby

Air Quality

  Air Quality AQ Index Pollutant
Not available.

Snow Depth

Station Depth Elevation

Earthquake Activity

City Distance Mag. Time & Date
Minimum magnitude displayed is 2.5.

Coastal Water Temperatures

Place Temperature

Stations

Nearby Weather Stations

Station Location Temp. Windchill Dew Point Humidity Wind Precip. Elev Updated Type